Monday, September 01, 2014
23:33 UTC
  |  Log In   |  Register Free
Airport Search:

Pocono Mountains Municipal Airport
(KMPO)

Pocono Mountains Municipal Airport Diagram
No Airport Diagram Available

FAA data valid effective July 24, 2014 until September 18, 2014 (unless otherwise noted).

 
 
 
 
 
 
 
 
 
 
 
 
 
 

Current Aviation Weather for Pocono Mountains Municipal Airport (KMPO)

The most recent METAR observation for KMPO was updated at: 2153 UTC
METAR Summary (Translated METAR)
KMPO
012153Z AUTO 23006KT 10SM BKN025 BKN035 BKN060 26/19 A3001 RMK AO2 SLP150 T02560194 TSNO
KAVP
(19.6 nm NW from KMPO)
012154Z AUTO 23006KT 10SM FEW090 28/19 A2995 RMK AO2 SLP133 T02830194 TSNO
TAF Summary (Translated TAF)
KAVP
(19.6 nm NW from KMPO)
011731Z 0118/0218 22008KT P6SM SCT025 BKN045 FM020300 21004KT 5SM BR SCT045 BKN150 TEMPO 0208/0212 2SM BR FM021300 25010KT P6SM BKN050
KABE
(29.3 nm SW from KMPO)
012109Z 0121/0218 25007KT P6SM BKN070 FM020000 24005KT P6SM SCT050 SCT100 FM020800 VRB02KT 5SM BR SCT100 TEMPO 0210/0213 3SM BR FM021400 25007KT P6SM SCT100
  Airport Weather Conditions for KMPO

 Current Weather at MPO
77° F
A Few Clouds
West winds at 4.6 mph
MPO NOAA Radar

Pressure: 30.01 in
Humidity: 74%
Wind: West at 4.6 MPH (4 KT)
Dew Point: 68.0°F
Visibility: 10.00 mi


Airport Weather Forecast for KMPO

Translated METAR and TAF for KMPO
Translated METAR for KMPO (2327 UTC 01 September 2014)
found at http://aviationweather.gov/adds/metars/
 
METAR text: KMPO 012253Z AUTO 26004KT 10SM FEW023 25/20 A3001 RMK AO2 SLP149 T02500200 TSNO
Conditions at: KMPO (MT. POCONO , PA, US) observed 2253 UTC 01 September 2014
Temperature: 25.0°C (77°F)
Dewpoint: 20.0°C (68°F) [RH = 74%]
Pressure (altimeter): 30.01 inches Hg (1016.3 mb)
[Sea-level pressure: 1014.9 mb]
Winds: from the W (260 degrees) at 5 MPH (4 knots; 2.1 m/s)
Visibility: 10 or more miles (16+ km)
Ceiling: at least 12,000 feet AGL
Clouds: few clouds at 2300 feet AGL
Weather: automated observation with no human augmentation;
there may or may not be significant weather present at this time
Translated TAF for KMPO

There is no translated TAF available for this airport

Find All Airport Services Find A Hotel Find A Rental Car Find A Golf Course Find A Restaurant $100 Hamburger



FBO's on the Field
FBO Company Facility Photos Services Transportation Aviation Fuel Prices: Prices include tax
Catering Weather Repair Courtesy Rental Type 100LL JetA JetA+ MOGAS 8087
 
Pocono Mountains Municipal Airport Authority

This FBO has not yet been rated
FS:Phillips66
Last Updated: Jul-17
Login to update fuel prices
SS:
Contact Pocono Mountains Municipal Airport AuthorityMore FBO Information
 
Add another FBO Facility Photos Catering Weather Repair Courtesy Rental Type 100LL JetA JetA+ MOGAS 8087
Services Transportation Aviation Fuel Prices: Prices include tax


GlobalAir.com Airport Resource Center model-print
model-print
model-print
model-print